Schriever AFB, Colorado
Current Conditions -  °F | °C
As of 10:54 PM on Monday 26 Jan 2015 (Local Time) from KCOS Reporting Station
Clear Clear  
Wind Chill: 32°   Ceiling: Unl
Heat Index: 38°   Visibility: 10mi
Dew Point: 25°   Wind: 8mph
Humidity: 60%   Direction: 40°NE
Pressure: 30.3"   Gusts: NA
Location:  38.8334°N, 104.82°W
Report Text: KCOS 270554Z 04007KT 10SM CLR 03/M04 A3030 RMK AO2 SLP234 T00331039 10150 20022 55001
Loading
Personal Weather Stations






























Interactive Weather Map New forecast layout! Learn more

10-Day Weather Forecast

Advertisements
Track Severe Weather on mobile